Time;durP1;ratioP1;P1;durP2;ratioP2;P2;SDS_P1;SDS_P2;PMS_P1;PMS_P2;Temp;Humidity;BMP_temperature;BMP_pressure;BME280_temperature;BME280_humidity;BME280_pressure;Samples;Min_cycle;Max_cycle;Signal;HPM_P1;HPM_P2
2023/10/11 00:00:33;;;;;;;2.40;1.30;;;;;;;12.58;51.89;97241.56;5113965;28;20400;-61
2023/10/11 00:03:05;;;;;;;9.43;1.35;;;;;;;12.58;51.87;97244.19;5113949;28;20058;-61
2023/10/11 00:05:39;;;;;;;4.65;1.50;;;;;;;12.59;51.71;97240.69;5113843;28;20079;-61
2023/10/11 00:08:12;;;;;;;4.47;1.38;;;;;;;12.53;51.59;97238.28;5113918;28;20089;-61
2023/10/11 00:10:44;;;;;;;7.50;1.55;;;;;;;12.47;52.07;97241.09;5113824;28;20069;-61
2023/10/11 00:13:16;;;;;;;5.05;1.33;;;;;;;12.50;52.04;97241.84;5113936;28;20126;-61
2023/10/11 00:15:48;;;;;;;3.78;1.30;;;;;;;12.40;52.12;97235.19;5113553;28;20096;-62
2023/10/11 00:18:17;;;;;;;6.13;1.50;;;;;;;12.34;51.96;97245.91;5113904;28;20477;-62
2023/10/11 00:20:56;;;;;;;7.00;1.80;;;;;;;12.28;52.42;97241.72;5113875;28;20043;-61
2023/10/11 00:23:26;;;;;;;1.75;1.00;;;;;;;12.25;52.47;97244.44;5113776;28;20098;-62
2023/10/11 00:25:58;;;;;;;6.50;1.17;;;;;;;12.22;52.89;97252.44;5113428;28;20378;-62
2023/10/11 00:28:26;;;;;;;4.22;1.40;;;;;;;12.16;53.08;97248.22;5113552;28;20054;-62
2023/10/11 00:30:55;;;;;;;3.33;1.73;;;;;;;12.18;53.39;97251.66;5113655;28;20043;-62
2023/10/11 00:33:22;;;;;;;3.38;1.38;;;;;;;12.01;53.37;97249.56;5113499;28;20051;-61
2023/10/11 00:35:52;;;;;;;4.38;1.48;;;;;;;12.08;53.99;97250.25;5113592;28;20127;-61
2023/10/11 00:38:20;;;;;;;5.07;1.50;;;;;;;12.12;53.49;97251.88;5113557;28;20499;-62
2023/10/11 00:41:00;;;;;;;2.00;1.23;;;;;;;12.18;53.71;97250.78;5113453;28;20079;-61
2023/10/11 00:43:35;;;;;;;1.75;1.00;;;;;;;12.17;53.86;97249.09;5113442;28;20047;-61
2023/10/11 00:46:05;;;;;;;4.78;1.42;;;;;;;12.13;54.75;97243.94;5113353;28;20040;-61
2023/10/11 00:48:33;;;;;;;4.70;1.33;;;;;;;12.07;54.70;97244.13;5115233;28;20130;-61
2023/10/11 00:51:00;;;;;;;5.20;1.33;;;;;;;12.08;55.62;97238.00;5117721;28;20044;-61
2023/10/11 00:53:34;;;;;;;5.80;1.40;;;;;;;12.06;54.55;97239.78;5117628;28;20071;-61
2023/10/11 00:56:05;;;;;;;3.72;1.17;;;;;;;12.05;54.50;97242.44;5117559;28;20048;-61
2023/10/11 00:58:33;;;;;;;5.45;1.17;;;;;;;12.00;54.72;97245.22;5117458;28;20071;-62
2023/10/11 01:01:03;;;;;;;3.40;1.20;;;;;;;11.95;54.69;97245.38;5117405;28;20043;-62
2023/10/11 01:03:34;;;;;;;4.95;1.40;;;;;;;11.94;55.67;97246.28;5117342;28;20082;-62
2023/10/11 01:06:03;;;;;;;7.70;1.40;;;;;;;11.92;54.54;97247.25;5117220;28;20047;-61
2023/10/11 01:08:38;;;;;;;1.48;1.15;;;;;;;11.87;55.91;97250.84;5117190;28;20047;-62
2023/10/11 01:11:10;;;;;;;4.00;1.40;;;;;;;11.82;55.91;97258.03;5117142;28;20051;-61
2023/10/11 01:13:40;;;;;;;3.80;1.30;;;;;;;11.79;55.90;97257.25;5117087;28;20130;-62
2023/10/11 01:16:10;;;;;;;5.70;1.30;;;;;;;11.78;56.09;97271.25;5116900;28;20047;-61
2023/10/11 01:18:38;;;;;;;3.28;1.30;;;;;;;11.80;56.80;97264.22;5117072;28;20055;-61
2023/10/11 01:21:07;;;;;;;6.18;1.35;;;;;;;11.79;56.88;97270.34;5116942;28;20056;-62
2023/10/11 01:23:35;;;;;;;6.93;1.30;;;;;;;11.71;55.72;97275.84;5116898;28;20413;-62
2023/10/11 01:26:07;;;;;;;15.48;2.72;;;;;;;11.69;55.48;97285.53;5116908;28;20044;-61
2023/10/11 01:28:36;;;;;;;4.38;1.33;;;;;;;11.75;56.31;97290.56;5116865;28;20048;-62
2023/10/11 01:31:08;;;;;;;8.45;1.58;;;;;;;11.73;56.09;97284.50;5116901;28;20497;-62
2023/10/11 01:33:37;;;;;;;3.47;1.38;;;;;;;11.77;56.52;97285.28;5116777;28;20069;-61
2023/10/11 01:36:07;;;;;;;5.57;1.15;;;;;;;11.74;55.61;97289.72;5116715;28;20044;-62
2023/10/11 01:38:45;;;;;;;4.82;1.40;;;;;;;11.76;55.83;97289.66;5116761;28;20130;-61
2023/10/11 01:41:14;;;;;;;11.77;1.60;;;;;;;11.74;55.63;97297.56;5116760;28;20051;-61
2023/10/11 01:43:42;;;;;;;2.63;1.17;;;;;;;11.71;54.49;97304.69;5116691;28;20048;-62
2023/10/11 01:46:08;;;;;;;5.95;1.40;;;;;;;11.76;55.64;97302.75;5116433;28;20047;-62
2023/10/11 01:48:35;;;;;;;21.88;1.60;;;;;;;11.79;54.74;97304.44;5116446;28;20039;-62
2023/10/11 01:51:04;;;;;;;5.25;1.20;;;;;;;11.77;55.16;97307.09;5116398;28;20409;-62
2023/10/11 01:53:33;;;;;;;2.17;1.15;;;;;;;11.81;55.89;97302.63;5116355;28;20043;-61
2023/10/11 01:56:00;;;;;;;2.47;1.20;;;;;;;11.83;57.02;97301.66;5116208;28;20040;-61
2023/10/11 01:58:27;;;;;;;3.25;1.20;;;;;;;11.81;55.74;97300.88;5116465;28;20052;-62
2023/10/11 02:00:55;;;;;;;2.08;1.05;;;;;;;11.78;55.60;97300.97;5115617;28;20048;-61
2023/10/11 02:03:24;;;;;;;3.95;1.35;;;;;;;11.79;55.88;97297.44;5116231;28;20043;-62
2023/10/11 02:05:51;;;;;;;3.90;1.30;;;;;;;11.77;56.28;97306.25;5116261;28;20054;-61
2023/10/11 02:08:18;;;;;;;6.18;1.02;;;;;;;11.69;55.52;97301.25;5115934;28;20507;-61
2023/10/11 02:10:46;;;;;;;7.03;1.30;;;;;;;11.71;56.94;97295.03;5116206;28;20047;-62
2023/10/11 02:13:15;;;;;;;10.07;1.45;;;;;;;11.69;56.49;97298.63;5116092;28;20489;-61
2023/10/11 02:15:47;;;;;;;2.90;1.40;;;;;;;11.60;57.62;97305.00;5115818;28;20130;-62
2023/10/11 02:18:14;;;;;;;3.75;1.13;;;;;;;11.57;57.80;97305.09;5115880;28;20507;-62
2023/10/11 02:20:45;;;;;;;3.83;1.27;;;;;;;11.44;58.13;97310.69;5115855;28;20508;-61
2023/10/11 02:23:12;;;;;;;4.32;1.20;;;;;;;11.41;58.18;97307.31;5116011;28;20051;-62
2023/10/11 02:25:41;;;;;;;11.00;1.33;;;;;;;11.32;57.53;97311.06;5115820;28;20051;-62
2023/10/11 02:28:10;;;;;;;5.40;1.10;;;;;;;11.24;56.74;97309.53;5115749;28;20043;-61
2023/10/11 02:30:41;;;;;;;6.95;1.40;;;;;;;11.26;57.41;97312.09;5115734;28;20044;-62
2023/10/11 02:33:11;;;;;;;5.40;1.42;;;;;;;11.27;57.53;97310.31;5115702;28;20097;-61
2023/10/11 02:35:51;;;;;;;2.17;0.95;;;;;;;11.22;57.18;97313.06;5115612;28;20058;-62
2023/10/11 02:38:23;;;;;;;6.20;1.23;;;;;;;11.22;58.12;97310.44;5115571;28;20051;-61
2023/10/11 02:40:57;;;;;;;3.55;1.02;;;;;;;11.12;58.62;97315.09;5115468;28;20043;-60
2023/10/11 02:43:27;;;;;;;3.55;1.20;;;;;;;11.06;58.52;97320.50;5115404;28;20059;-62
2023/10/11 02:45:54;;;;;;;3.22;1.25;;;;;;;11.04;59.31;97325.78;5115490;28;20108;-62
2023/10/11 02:48:21;;;;;;;3.05;1.13;;;;;;;11.02;59.60;97319.75;5115321;28;20054;-62
2023/10/11 02:50:54;;;;;;;3.38;1.38;;;;;;;11.04;59.66;97324.91;5115255;28;20047;-61
2023/10/11 02:53:24;;;;;;;6.10;1.08;;;;;;;10.99;59.53;97322.44;5115237;28;20047;-62
2023/10/11 02:55:59;;;;;;;4.00;1.13;;;;;;;10.96;60.11;97323.34;5115106;28;20488;-61
2023/10/11 02:58:29;;;;;;;1.88;1.10;;;;;;;10.95;60.34;97328.63;5115215;28;20067;-62
2023/10/11 03:00:59;;;;;;;5.95;1.00;;;;;;;10.90;58.13;97327.91;5115117;28;20047;-61
2023/10/11 03:03:27;;;;;;;9.27;1.38;;;;;;;10.89;59.47;97326.19;5115010;28;20054;-61
2023/10/11 03:05:56;;;;;;;2.97;1.00;;;;;;;10.91;59.89;97327.00;5115097;28;20044;-62
2023/10/11 03:08:26;;;;;;;3.10;1.42;;;;;;;10.83;59.82;97320.22;5115001;28;20073;-62
2023/10/11 03:10:57;;;;;;;2.20;1.00;;;;;;;10.83;60.00;97328.06;5115020;28;20127;-61
2023/10/11 03:13:29;;;;;;;4.40;1.50;;;;;;;10.89;60.74;97331.44;5114787;28;20051;-62
2023/10/11 03:15:58;;;;;;;2.33;1.50;;;;;;;10.89;60.25;97326.19;5114549;28;20070;-62
2023/10/11 03:18:27;;;;;;;6.20;1.10;;;;;;;10.91;60.02;97322.63;5114807;28;20464;-61
2023/10/11 03:21:16;;;;;;;7.82;1.30;;;;;;;10.97;59.71;97329.47;5114490;28;20473;-61
2023/10/11 03:23:44;;;;;;;2.28;1.25;;;;;;;11.01;60.11;97327.63;5114640;28;20508;-61
2023/10/11 03:26:22;;;;;;;6.00;1.27;;;;;;;11.07;60.75;97336.16;5114605;28;20079;-61
2023/10/11 03:28:57;;;;;;;5.25;1.23;;;;;;;11.11;60.15;97334.34;5114658;28;20043;-61
2023/10/11 03:31:27;;;;;;;4.00;1.13;;;;;;;11.18;61.07;97329.78;5114546;28;20078;-61
2023/10/11 03:33:55;;;;;;;1.08;0.98;;;;;;;11.25;62.47;97334.81;5114534;28;20083;-62
2023/10/11 03:36:28;;;;;;;2.38;0.98;;;;;;;11.26;62.00;97330.44;5114500;28;20043;-62
2023/10/11 03:38:57;;;;;;;6.45;1.20;;;;;;;11.26;61.62;97330.44;5114334;28;20048;-61
2023/10/11 03:41:28;;;;;;;4.22;1.17;;;;;;;11.27;60.87;97331.28;5114421;28;20097;-61
2023/10/11 03:44:00;;;;;;;2.30;1.30;;;;;;;11.29;61.69;97332.09;5114333;28;20096;-62
2023/10/11 03:46:33;;;;;;;3.42;1.08;;;;;;;11.29;61.67;97334.72;5114211;28;20518;-61
2023/10/11 03:49:32;;;;;;;1.85;1.08;;;;;;;11.29;60.50;97342.56;5114230;28;20048;-61
2023/10/11 03:51:51;;;;;;;;;;;;;;;11.32;60.54;97334.63;5114385;28;20086;-61
2023/10/11 03:54:22;;;;;;;2.10;1.10;;;;;;;11.35;61.63;97339.78;5114185;28;19981;-62
2023/10/11 03:56:53;;;;;;;2.28;1.08;;;;;;;11.40;61.58;97340.50;5114296;28;20039;-61
2023/10/11 03:59:20;;;;;;;3.42;1.20;;;;;;;11.43;61.38;97339.53;5113941;28;20489;-62
2023/10/11 04:01:49;;;;;;;1.95;1.27;;;;;;;11.47;62.12;97333.34;5113957;28;20059;-61
2023/10/11 04:04:17;;;;;;;1.98;1.15;;;;;;;11.53;62.66;97334.91;5113919;28;20044;-62
2023/10/11 04:06:50;;;;;;;5.50;1.13;;;;;;;11.57;62.86;97340.03;5114007;28;20051;-61
2023/10/11 04:09:31;;;;;;;4.20;1.20;;;;;;;11.57;61.66;97340.03;5113896;28;20085;-61
2023/10/11 04:12:00;;;;;;;2.30;1.17;;;;;;;11.61;61.68;97351.25;5113867;28;20056;-61
2023/10/11 04:14:39;;;;;;;3.13;1.30;;;;;;;11.65;62.08;97344.19;5113480;28;20527;-61
2023/10/11 04:17:10;;;;;;;5.32;1.33;;;;;;;11.65;61.55;97346.78;5113687;28;20090;-62
2023/10/11 04:19:40;;;;;;;3.45;1.48;;;;;;;11.69;60.44;97345.78;5113664;28;20047;-62
2023/10/11 04:22:16;;;;;;;4.00;0.93;;;;;;;11.70;61.39;97344.88;5113683;28;20054;-61
2023/10/11 04:24:45;;;;;;;2.38;1.10;;;;;;;11.74;61.85;97343.91;5113548;28;20039;-61
2023/10/11 04:30:17;;;;;;;5.35;1.25;;;;;;;11.80;61.82;97348.09;5095647;28;20408;-62
2023/10/11 04:32:46;;;;;;;2.28;1.17;;;;;;;11.77;61.97;97354.28;5113607;28;20111;-61
2023/10/11 04:35:21;;;;;;;5.10;1.10;;;;;;;11.79;61.83;97357.72;5113544;28;20096;-62
2023/10/11 04:37:54;;;;;;;3.90;1.23;;;;;;;11.81;61.52;97358.53;5113698;28;20090;-61
2023/10/11 04:40:40;;;;;;;2.15;1.20;;;;;;;11.83;61.61;97375.06;5113550;28;20054;-61
2023/10/11 04:43:20;;;;;;;3.63;1.20;;;;;;;11.79;60.66;97369.97;5113642;28;20044;-61
2023/10/11 04:45:48;;;;;;;4.45;1.08;;;;;;;11.84;61.35;97374.19;5113524;28;20043;-62
2023/10/11 04:48:18;;;;;;;2.15;1.25;;;;;;;11.88;61.89;97382.81;5113493;28;20052;-62
2023/10/11 04:50:47;;;;;;;13.65;1.70;;;;;;;11.87;61.26;97375.84;5113486;28;20139;-61
2023/10/11 04:53:18;;;;;;;2.30;1.10;;;;;;;11.86;61.02;97377.59;5113440;28;20505;-61
2023/10/11 04:55:59;;;;;;;1.58;0.93;;;;;;;11.86;60.23;97377.59;5113380;28;20048;-61
2023/10/11 04:58:42;;;;;;;2.88;1.30;;;;;;;11.90;59.65;97380.13;5113371;28;20096;-61
2023/10/11 05:01:11;;;;;;;3.17;1.17;;;;;;;11.94;59.30;97382.63;5113373;28;20043;-62
2023/10/11 05:03:42;;;;;;;7.50;1.38;;;;;;;12.00;60.64;97389.44;5113189;28;20455;-62
2023/10/11 05:06:19;;;;;;;6.13;1.27;;;;;;;12.08;62.79;97392.75;5113354;28;20051;-62
2023/10/11 05:08:54;;;;;;;3.33;1.35;;;;;;;12.13;63.44;97392.56;5113197;28;20043;-62
2023/10/11 05:11:36;;;;;;;8.20;1.98;;;;;;;12.19;63.14;97387.13;5113200;28;20094;-61
2023/10/11 05:14:26;;;;;;;3.47;1.50;;;;;;;12.29;62.84;97385.09;5112896;28;20131;-61
2023/10/11 05:16:59;;;;;;;3.80;1.25;;;;;;;12.39;63.20;97390.91;5113183;28;20098;-61
2023/10/11 05:19:28;;;;;;;2.25;1.17;;;;;;;12.45;61.10;97393.34;5113179;28;20043;-61
2023/10/11 05:21:55;;;;;;;4.78;1.30;;;;;;;12.48;60.28;97395.88;5113128;28;20409;-62
2023/10/11 05:24:33;;;;;;;3.63;0.90;;;;;;;12.54;59.14;97396.56;5112934;28;20048;-62
2023/10/11 05:27:11;;;;;;;2.15;1.10;;;;;;;12.60;60.78;97404.25;5112949;28;20063;-62
2023/10/11 05:30:05;;;;;;;3.92;0.95;;;;;;;12.62;60.03;97405.91;5113097;28;20546;-61
2023/10/11 05:32:32;;;;;;;4.50;1.10;;;;;;;12.67;60.94;97413.63;5112822;28;20099;-61
2023/10/11 05:35:19;;;;;;;10.07;1.20;;;;;;;12.68;61.00;97418.00;5113644;28;20043;-61
2023/10/11 05:51:30;;;;;;;8.05;1.70;;;;;;;12.89;60.31;97433.94;5116632;28;20104;-61
2023/10/11 05:54:00;;;;;;;8.57;1.80;;;;;;;12.97;59.77;97439.78;5116531;28;20082;-61
2023/10/11 05:56:33;;;;;;;2.78;1.20;;;;;;;13.04;59.45;97444.84;5116372;28;20050;-62
2023/10/11 05:59:04;;;;;;;1.58;1.10;;;;;;;13.09;58.64;97441.16;5116479;28;20047;-62
2023/10/11 06:01:34;;;;;;;7.80;1.50;;;;;;;13.12;58.90;97434.91;5116412;28;20087;-62
2023/10/11 06:04:03;;;;;;;9.98;1.95;;;;;;;13.17;57.48;97438.25;5116220;28;20488;-62
2023/10/11 06:06:38;;;;;;;3.77;1.20;;;;;;;13.19;57.29;97436.44;5116118;28;20094;-61
2023/10/11 06:09:08;;;;;;;1.52;1.00;;;;;;;13.24;57.99;97434.50;5116152;28;20446;-61
2023/10/11 06:11:38;;;;;;;7.17;1.37;;;;;;;13.31;58.13;97434.31;5116169;28;20066;-62
2023/10/11 06:14:07;;;;;;;3.03;1.10;;;;;;;13.34;57.50;97432.41;5115811;28;20351;-61
2023/10/11 06:16:37;;;;;;;6.53;1.38;;;;;;;13.40;56.10;97447.97;5116018;28;20052;-62
2023/10/11 06:19:17;;;;;;;8.68;1.20;;;;;;;13.46;56.59;97446.03;5116055;28;20089;-61
2023/10/11 06:21:57;;;;;;;3.45;1.30;;;;;;;13.51;56.95;97452.00;5115964;28;20047;-61
2023/10/11 06:24:30;;;;;;;8.73;1.30;;;;;;;13.57;56.52;97459.69;5116007;28;20070;-62
2023/10/11 06:27:11;;;;;;;6.43;1.40;;;;;;;13.61;56.03;97458.66;5115744;28;20047;-62
2023/10/11 06:29:38;;;;;;;3.63;1.30;;;;;;;13.60;54.13;97456.09;5115574;28;20054;-61
2023/10/11 06:32:10;;;;;;;7.93;1.60;;;;;;;13.67;53.62;97456.75;5115696;28;20050;-61
2023/10/11 06:34:38;;;;;;;2.95;1.63;;;;;;;13.66;52.90;97460.28;5115628;28;20093;-61
2023/10/11 06:37:07;;;;;;;4.32;1.73;;;;;;;13.70;52.88;97464.53;5115726;28;20071;-61
2023/10/11 06:42:23;;;;;;;8.68;1.50;;;;;;;13.74;53.54;97463.50;5115546;28;20093;-61
2023/10/11 06:44:57;;;;;;;7.90;1.40;;;;;;;13.81;53.20;97464.13;5115457;28;20477;-62
2023/10/11 06:47:26;;;;;;;3.58;1.30;;;;;;;13.85;52.59;97465.75;5115019;28;20048;-62
2023/10/11 06:49:55;;;;;;;3.10;1.15;;;;;;;13.94;51.99;97473.25;5115383;28;20048;-62
2023/10/11 06:52:30;;;;;;;6.30;2.03;;;;;;;13.98;51.84;97474.88;5115315;28;20051;-61
2023/10/11 06:57:50;;;;;;;4.00;1.70;;;;;;;14.09;54.06;97482.38;5114785;28;20120;-61
2023/10/11 07:00:24;;;;;;;2.95;1.20;;;;;;;14.17;52.70;97475.97;5115031;28;20048;-61
2023/10/11 07:02:53;;;;;;;3.83;1.58;;;;;;;14.15;49.02;97486.56;5115265;28;20398;-62
2023/10/11 07:05:25;;;;;;;5.47;1.52;;;;;;;14.13;47.37;97491.00;5115106;28;20051;-61
2023/10/11 07:07:55;;;;;;;6.75;1.58;;;;;;;14.03;45.92;97491.34;5115033;28;20054;-62
2023/10/11 07:10:32;;;;;;;4.18;1.55;;;;;;;14.03;46.64;97493.97;5114952;28;20168;-63
2023/10/11 07:13:07;;;;;;;6.05;1.30;;;;;;;14.02;45.58;97494.03;5115053;28;20086;-61
2023/10/11 07:15:42;;;;;;;3.47;1.33;;;;;;;13.94;45.85;97496.09;5114794;28;20055;-61
2023/10/11 07:18:11;;;;;;;10.27;1.42;;;;;;;14.00;46.77;97490.63;5114818;28;20067;-62
2023/10/11 07:20:49;;;;;;;14.25;1.73;;;;;;;14.07;46.23;97486.84;5114864;28;20131;-61
2023/10/11 07:23:22;;;;;;;3.53;1.60;;;;;;;14.14;45.89;97487.47;5114761;28;20071;-61
2023/10/11 07:26:11;;;;;;;2.30;1.60;;;;;;;14.19;46.48;97495.19;5114555;28;20091;-62
2023/10/11 07:28:37;;;;;;;5.15;1.33;;;;;;;14.28;46.67;97495.72;5114518;28;20048;-61
2023/10/11 07:31:13;;;;;;;6.93;1.70;;;;;;;14.32;47.11;97483.28;5114456;28;20039;-61
2023/10/11 07:33:40;;;;;;;7.13;1.48;;;;;;;14.49;47.05;97492.31;5114508;28;20511;-62
2023/10/11 07:36:11;;;;;;;5.78;1.15;;;;;;;14.72;47.13;97488.75;5114413;28;20075;-61
2023/10/11 07:38:43;;;;;;;7.15;1.63;;;;;;;14.85;46.76;97488.31;5114393;28;20043;-61
2023/10/11 07:41:17;;;;;;;3.95;1.42;;;;;;;15.02;46.28;97488.47;5114380;28;20051;-61
2023/10/11 07:43:45;;;;;;;5.07;1.30;;;;;;;15.19;44.61;97494.81;5114470;28;20097;-60
2023/10/11 07:46:12;;;;;;;6.90;1.77;;;;;;;15.37;44.96;97494.97;5114255;28;20118;-61
2023/10/11 07:48:39;;;;;;;3.03;1.25;;;;;;;15.39;43.72;97501.03;5114012;28;20140;-61
2023/10/11 07:51:09;;;;;;;2.17;1.35;;;;;;;15.48;44.85;97505.94;5114216;28;20100;-61
2023/10/11 07:53:39;;;;;;;4.93;1.27;;;;;;;15.59;44.76;97505.47;5114127;28;20120;-62
2023/10/11 07:56:09;;;;;;;7.30;1.35;;;;;;;15.63;43.36;97514.09;5114170;28;20043;-62
2023/10/11 07:58:45;;;;;;;13.15;2.05;;;;;;;15.48;43.57;97508.56;5113478;28;20077;-61
2023/10/11 08:01:24;;;;;;;2.90;1.27;;;;;;;15.60;44.65;97507.19;5113932;28;20079;-62
2023/10/11 08:03:53;;;;;;;4.80;1.40;;;;;;;15.69;43.78;97507.69;5113833;28;20093;-61
2023/10/11 08:06:24;;;;;;;7.10;1.27;;;;;;;15.66;43.17;97508.69;5114107;28;20056;-62
2023/10/11 08:08:58;;;;;;;2.33;1.30;;;;;;;15.57;44.06;97512.59;5113808;28;20063;-61
2023/10/11 08:11:36;;;;;;;5.07;1.25;;;;;;;15.60;43.66;97507.19;5114042;28;20048;-62
2023/10/11 08:14:10;;;;;;;8.48;1.70;;;;;;;15.53;43.63;97516.25;5113641;28;20093;-61
2023/10/11 08:16:40;;;;;;;6.05;1.50;;;;;;;15.48;43.76;97519.13;5113881;28;20508;-61
2023/10/11 08:19:11;;;;;;;8.80;1.70;;;;;;;15.38;43.72;97512.53;5113784;28;20451;-62
2023/10/11 08:21:38;;;;;;;4.67;1.47;;;;;;;15.19;44.99;97512.41;5113827;28;20492;-61
2023/10/11 08:24:15;;;;;;;5.75;1.10;;;;;;;15.19;44.49;97515.91;5113629;28;20540;-62
2023/10/11 08:26:45;;;;;;;8.10;1.77;;;;;;;15.25;44.13;97523.56;5113877;28;20101;-62
2023/10/11 08:31:53;;;;;;;9.32;1.60;;;;;;;15.20;44.12;97522.06;5109853;28;20127;-62
2023/10/11 08:34:20;;;;;;;10.77;1.50;;;;;;;15.09;44.22;97522.47;5113751;28;20047;-62
2023/10/11 08:36:48;;;;;;;2.42;1.52;;;;;;;15.06;44.75;97519.97;5113649;28;20442;-61
2023/10/11 08:39:21;;;;;;;1.75;1.42;;;;;;;15.00;45.21;97523.72;5113567;28;20077;-61
2023/10/11 10:08:28;;;;;;;7.55;1.73;;;;;;;16.36;44.13;97510.06;5131765;27;20372;-62
2023/10/11 10:10:55;;;;;;;2.25;1.65;;;;;;;16.51;43.77;97513.75;5131259;28;20051;-63
2023/10/11 10:13:24;;;;;;;2.47;1.20;;;;;;;16.60;43.39;97510.69;5131333;28;20122;-62
2023/10/11 10:15:53;;;;;;;6.30;1.90;;;;;;;16.69;43.81;97512.03;5131259;28;20440;-62
2023/10/11 10:18:21;;;;;;;5.05;1.80;;;;;;;16.74;43.61;97512.66;5131225;28;20056;-61
2023/10/11 10:21:01;;;;;;;6.80;1.58;;;;;;;16.83;43.21;97515.81;5131248;27;20036;-63
2023/10/11 10:23:40;;;;;;;4.40;1.40;;;;;;;16.91;42.11;97503.06;5131087;28;20051;-63
2023/10/11 10:26:41;;;;;;;4.88;1.77;;;;;;;16.83;41.77;97506.13;5130969;28;20545;-61
2023/10/11 10:29:11;;;;;;;3.67;1.60;;;;;;;16.87;42.70;97504.16;5131060;28;20048;-62
2023/10/11 10:32:08;;;;;;;8.23;1.60;;;;;;;16.99;42.97;97500.94;5130950;28;20515;-62
2023/10/11 10:34:41;;;;;;;5.72;1.88;;;;;;;17.17;42.17;97493.06;5130946;27;20043;-62
2023/10/11 10:37:08;;;;;;;7.70;1.60;;;;;;;17.39;41.65;97481.38;5130690;28;20571;-62
2023/10/11 10:39:57;;;;;;;6.20;1.80;;;;;;;17.63;41.73;97481.06;5130710;27;20047;-61
2023/10/11 10:42:24;;;;;;;8.50;2.45;;;;;;;17.87;41.84;97473.63;5130801;28;20097;-62
2023/10/11 10:44:53;;;;;;;3.75;1.60;;;;;;;18.03;40.94;97471.03;5130564;28;20507;-62
2023/10/11 10:47:25;;;;;;;5.30;1.53;;;;;;;18.10;40.83;97476.00;5130689;28;20397;-62
2023/10/11 10:49:54;;;;;;;4.65;1.40;;;;;;;18.13;40.80;97468.78;5130589;28;20047;-62
2023/10/11 10:52:22;;;;;;;2.63;1.40;;;;;;;18.31;39.62;97464.25;5130646;28;20097;-62
2023/10/11 10:55:01;;;;;;;4.70;1.60;;;;;;;18.41;39.58;97458.44;5130415;28;20100;-62
2023/10/11 10:57:31;;;;;;;8.90;1.45;;;;;;;18.57;39.54;97471.69;5130379;28;20059;-63
2023/10/11 11:00:05;;;;;;;5.55;1.58;;;;;;;18.63;39.54;97468.69;5130467;27;20046;-63
2023/10/11 11:02:45;;;;;;;10.07;1.90;;;;;;;18.77;38.65;97452.03;5130434;28;20462;-62
2023/10/11 11:06:28;;;;;;;8.38;1.50;;;;;;;18.67;38.11;97458.78;5130350;28;20488;-62
2023/10/11 11:08:55;;;;;;;11.82;1.73;;;;;;;18.56;39.50;97456.75;5044119;28;20052;-63
2023/10/11 11:12:14;;;;;;;2.95;2.03;;;;;;;18.54;39.59;97454.19;5115472;28;20040;-63
2023/10/11 11:19:03;;;;;;;1.77;1.40;;;;;;;18.34;39.28;97438.53;5053509;28;20053;-62
2023/10/11 11:21:44;;;;;;;6.85;2.15;;;;;;;18.43;40.85;97438.03;4942699;28;20073;-63
2023/10/11 11:24:34;;;;;;;8.38;1.70;;;;;;;18.25;39.41;97435.47;4973468;28;20059;-63
2023/10/11 11:27:00;;;;;;;9.20;1.90;;;;;;;18.17;40.32;97427.97;4973983;28;20488;-62
2023/10/11 11:29:49;;;;;;;3.00;1.35;;;;;;;18.11;39.96;97427.41;5003704;28;20048;-62
2023/10/11 11:38:48;;;;;;;15.90;2.05;;;;;;;18.27;40.45;97415.03;5032492;28;20052;-63
2023/10/11 11:42:09;;;;;;;2.97;1.38;;;;;;;18.51;40.18;97408.47;5033155;28;20046;-63
2023/10/11 11:44:38;;;;;;;2.92;1.42;;;;;;;18.44;39.91;97403.53;5094308;28;20050;-63
2023/10/11 11:47:04;;;;;;;3.78;1.65;;;;;;;18.35;41.10;97404.03;5113714;28;20046;-63
2023/10/11 11:49:33;;;;;;;2.00;1.33;;;;;;;18.31;40.92;97402.50;5113720;28;20044;-62
2023/10/11 11:52:00;;;;;;;13.50;2.13;;;;;;;18.18;41.13;97400.53;5113623;28;20040;-63
2023/10/11 11:54:29;;;;;;;6.07;1.85;;;;;;;18.25;40.97;97390.47;5113421;28;20432;-62
2023/10/11 11:56:56;;;;;;;6.05;2.08;;;;;;;18.17;41.48;97390.88;5113430;28;20049;-63
2023/10/11 11:59:24;;;;;;;2.45;1.85;;;;;;;18.13;41.51;97393.78;5113437;28;20092;-63
2023/10/11 12:01:53;;;;;;;7.03;1.80;;;;;;;17.96;42.74;97392.03;5113346;28;20077;-62
2023/10/11 12:04:29;;;;;;;4.75;2.22;;;;;;;17.85;43.86;97380.22;5113337;28;20124;-62
2023/10/11 12:06:58;;;;;;;7.97;2.47;;;;;;;17.90;43.97;97388.78;5114316;28;20496;-62
2023/10/11 12:09:31;;;;;;;10.55;2.38;;;;;;;17.96;44.34;97382.31;5115420;28;20051;-62
2023/10/11 12:12:03;;;;;;;4.85;2.00;;;;;;;18.12;44.51;97377.03;5115392;28;20058;-62
2023/10/11 12:14:30;;;;;;;3.58;2.38;;;;;;;18.11;45.05;97375.34;5115346;28;20082;-62
2023/10/11 12:16:57;;;;;;;11.05;2.20;;;;;;;18.05;44.78;97373.88;5115195;28;20051;-62
2023/10/11 12:19:32;;;;;;;5.22;2.33;;;;;;;18.10;44.70;97371.00;5114334;28;20039;-62
2023/10/11 12:22:50;;;;;;;5.35;2.20;;;;;;;18.13;44.40;97372.59;5115173;28;20048;-62
2023/10/11 12:25:24;;;;;;;4.38;2.03;;;;;;;18.22;44.61;97377.41;5115061;28;20043;-62
2023/10/11 12:27:53;;;;;;;4.60;2.22;;;;;;;18.34;44.08;97367.03;5115144;28;20409;-62
2023/10/11 12:30:20;;;;;;;6.75;2.90;;;;;;;18.29;45.37;97368.16;5114975;28;20493;-62
2023/10/11 12:32:48;;;;;;;6.47;3.10;;;;;;;18.22;45.60;97368.59;5114795;28;20047;-61
2023/10/11 12:35:15;;;;;;;8.20;2.85;;;;;;;18.20;45.88;97379.25;5114599;28;20492;-62
2023/10/11 12:37:42;;;;;;;5.13;2.55;;;;;;;18.18;44.81;97376.69;5114604;28;20446;-62
2023/10/11 12:40:13;;;;;;;7.63;2.70;;;;;;;18.22;44.94;97364.16;5114793;28;20039;-62
2023/10/11 12:42:40;;;;;;;3.03;2.70;;;;;;;18.34;45.73;97361.75;5114586;28;20072;-62
2023/10/11 12:45:11;;;;;;;2.63;2.42;;;;;;;18.46;45.87;97353.13;5114719;28;20047;-62
2023/10/11 12:47:38;;;;;;;3.33;2.35;;;;;;;18.61;44.68;97366.41;5114649;28;20044;-62
2023/10/11 12:50:06;;;;;;;4.50;2.75;;;;;;;18.61;43.11;97354.03;5114521;28;20047;-62
2023/10/11 12:52:34;;;;;;;6.05;2.78;;;;;;;18.52;42.40;97357.19;5114420;28;20130;-62
2023/10/11 12:55:01;;;;;;;6.60;2.90;;;;;;;18.47;42.72;97357.47;5114462;28;20062;-62
2023/10/11 12:57:29;;;;;;;3.60;2.40;;;;;;;18.38;42.27;97353.53;5114288;28;20051;-62
2023/10/11 12:59:58;;;;;;;10.10;2.55;;;;;;;18.34;42.29;97352.03;5114301;28;20134;-62
2023/10/11 13:02:33;;;;;;;6.15;2.63;;;;;;;18.31;42.59;97342.44;5114286;28;20471;-62
2023/10/11 13:05:01;;;;;;;6.82;2.55;;;;;;;18.38;42.15;97345.59;5114225;28;20054;-62
2023/10/11 13:07:28;;;;;;;8.60;2.95;;;;;;;18.49;42.42;97341.47;5114089;28;20040;-62
2023/10/11 13:10:02;;;;;;;4.53;2.55;;;;;;;18.49;40.93;97344.13;5114290;28;20554;-62
2023/10/11 13:12:37;;;;;;;3.35;2.50;;;;;;;18.52;41.01;97346.59;5114120;28;20043;-62
2023/10/11 13:15:08;;;;;;;4.90;2.60;;;;;;;18.62;41.04;97341.63;5114401;28;20047;-62
2023/10/11 13:17:40;;;;;;;;;;;;;;;18.57;41.56;97344.53;5114518;28;20443;-63
2023/10/11 13:20:18;;;;;;;8.85;2.40;;;;;;;18.38;41.13;97339.44;5114025;28;19926;-62
2023/10/11 13:22:45;;;;;;;2.60;2.00;;;;;;;18.38;41.39;97339.44;5114011;28;20112;-62
2023/10/11 13:25:23;;;;;;;4.60;2.20;;;;;;;18.38;41.49;97328.84;5113947;28;20047;-62
2023/10/11 13:27:54;;;;;;;4.68;2.28;;;;;;;18.49;41.45;97336.19;5114016;28;20089;-62
2023/10/11 13:30:23;;;;;;;5.65;1.85;;;;;;;18.51;41.41;97326.38;5113706;28;20040;-62
2023/10/11 13:32:57;;;;;;;9.07;2.85;;;;;;;18.53;40.66;97333.28;5113809;28;20044;-62
2023/10/11 13:35:26;;;;;;;6.20;1.95;;;;;;;18.48;40.89;97324.72;5113730;28;20044;-62
2023/10/11 13:37:55;;;;;;;7.90;2.50;;;;;;;18.53;41.01;97321.81;5113636;28;20056;-62
2023/10/11 13:40:25;;;;;;;6.13;2.13;;;;;;;18.60;40.97;97322.31;5113875;28;20395;-62
2023/10/11 13:42:52;;;;;;;7.50;2.50;;;;;;;18.71;41.13;97319.03;5113670;28;20039;-62
2023/10/11 13:45:20;;;;;;;7.68;2.30;;;;;;;18.83;41.02;97320.97;5113925;28;20055;-62
2023/10/11 13:47:51;;;;;;;4.03;2.30;;;;;;;18.91;40.21;97325.81;5113564;28;20048;-61
2023/10/11 13:50:21;;;;;;;4.75;2.35;;;;;;;18.92;40.86;97332.81;5113814;28;20051;-62
2023/10/11 13:52:51;;;;;;;10.23;3.70;;;;;;;18.96;40.50;97325.53;5113550;28;20535;-63
2023/10/11 13:55:23;;;;;;;8.93;2.67;;;;;;;18.89;40.83;97319.72;5113655;28;20082;-62
2023/10/11 13:57:55;;;;;;;7.22;2.80;;;;;;;18.85;40.54;97323.53;5113336;28;20185;-62
2023/10/11 14:06:20;;;;;;;6.80;2.90;;;;;;;18.79;39.68;97320.28;5113047;28;20051;-62